Time;durP1;ratioP1;P1;durP2;ratioP2;P2;SDS_P1;SDS_P2;PMS_P1;PMS_P2;Temp;Humidity;BMP_temperature;BMP_pressure;BME280_temperature;BME280_humidity;BME280_pressure;Samples;Min_cycle;Max_cycle;Signal;HPM_P1;HPM_P2
2022/09/04 00:01:02;;;;;;;;;;;16.50;99.90;;;;;;5074205;28;19939;-80
2022/09/04 00:03:38;;;;;;;;;;;16.50;99.90;;;;;;5076258;28;19924;-80
2022/09/04 00:06:09;;;;;;;;;;;16.40;99.90;;;;;;5075721;28;19947;-81
2022/09/04 00:08:40;;;;;;;;;;;16.40;99.90;;;;;;5074255;28;19920;-81
2022/09/04 00:11:10;;;;;;;;;;;16.40;99.90;;;;;;5074789;28;19925;-80
2022/09/04 00:13:39;;;;;;;;;;;16.30;99.90;;;;;;5072837;28;19924;-80
2022/09/04 00:16:08;;;;;;;;;;;16.30;99.90;;;;;;5073129;28;19928;-81
2022/09/04 00:18:38;;;;;;;;;;;16.30;99.90;;;;;;5073006;28;20595;-81
2022/09/04 00:21:08;;;;;;;;;;;16.30;99.90;;;;;;5073328;28;19966;-81
2022/09/04 00:23:41;;;;;;;;;;;16.30;99.90;;;;;;5074095;28;19932;-80
2022/09/04 00:26:12;;;;;;;;;;;16.20;99.90;;;;;;5073833;28;19929;-81
2022/09/04 00:28:41;;;;;;;;;;;16.20;99.90;;;;;;5073614;28;19935;-81
2022/09/04 00:31:14;;;;;;;;;;;16.20;99.90;;;;;;5072695;28;19920;-82
2022/09/04 00:33:47;;;;;;;;;;;16.20;99.90;;;;;;5072957;28;19924;-82
2022/09/04 00:36:16;;;;;;;;;;;16.20;99.90;;;;;;5072085;28;20421;-82
2022/09/04 00:38:44;;;;;;;;;;;16.20;99.90;;;;;;5072269;28;20142;-82
2022/09/04 00:41:16;;;;;;;;;;;16.10;99.90;;;;;;5071455;28;19924;-82
2022/09/04 00:43:55;;;;;;;;;;;16.10;99.90;;;;;;5071966;28;20338;-82
2022/09/04 00:46:41;;;;;;;;;;;16.10;99.90;;;;;;5071682;28;20372;-79
2022/09/04 00:49:16;;;;;;;;;;;16.10;99.90;;;;;;5072375;28;20365;-79
2022/09/04 00:51:44;;;;;;;;;;;;;;;;;;5072539;28;19929;-81
2022/09/04 00:54:20;;;;;;;;;;;16.10;99.90;;;;;;5073708;28;19920;-81
2022/09/04 00:57:08;;;;;;;;;;;16.00;99.90;;;;;;5072189;28;19921;-82
2022/09/04 00:59:43;;;;;;;;;;;17.00;99.90;;;;;;5072758;28;19921;-81
2022/09/04 01:02:18;;;;;;;;;;;16.00;99.90;;;;;;5069545;28;19935;-83
2022/09/04 01:04:50;;;;;;;;;;;16.00;99.90;;;;;;5068882;28;19920;-83
2022/09/04 01:07:25;;;;;;;;;;;16.00;99.90;;;;;;5073418;28;19920;-83
2022/09/04 01:10:05;;;;;;;;;;;15.90;99.90;;;;;;5073455;28;19951;-82
2022/09/04 01:12:38;;;;;;;;;;;15.90;99.90;;;;;;5073445;28;19924;-82
2022/09/04 01:15:14;;;;;;;;;;;15.90;99.90;;;;;;5074294;28;20018;-83
2022/09/04 01:17:51;;;;;;;;;;;15.90;99.90;;;;;;5074741;28;19920;-84
2022/09/04 01:20:24;;;;;;;;;;;15.90;99.90;;;;;;5073580;28;20222;-84
2022/09/04 01:22:55;;;;;;;;;;;15.90;99.90;;;;;;5067011;28;19920;-82
2022/09/04 01:25:34;;;;;;;;;;;15.80;99.90;;;;;;5057796;28;19971;-81
2022/09/04 01:28:07;;;;;;;;;;;15.80;99.90;;;;;;5051192;28;20379;-80
2022/09/04 01:30:37;;;;;;;;;;;15.80;99.90;;;;;;5052428;28;19925;-79
2022/09/04 01:33:08;;;;;;;;;;;15.80;99.90;;;;;;5052248;28;19925;-80
2022/09/04 01:35:42;;;;;;;;;;;15.80;99.90;;;;;;5053192;28;19925;-80
2022/09/04 01:38:11;;;;;;;;;;;15.70;99.90;;;;;;5052458;28;19925;-79
2022/09/04 01:40:41;;;;;;;;;;;15.70;99.90;;;;;;5054421;28;19932;-80
2022/09/04 01:43:11;;;;;;;;;;;15.70;99.90;;;;;;5055108;28;19920;-84
2022/09/04 01:45:46;;;;;;;;;;;15.70;99.90;;;;;;5073491;28;19982;-84
2022/09/04 01:48:15;;;;;;;;;;;15.70;99.90;;;;;;5059816;28;19924;-83
2022/09/04 01:50:44;;;;;;;;;;;15.70;99.90;;;;;;5068516;28;20369;-83
2022/09/04 01:53:12;;;;;;;;;;;15.70;99.90;;;;;;5057143;28;19925;-84
2022/09/04 01:55:44;;;;;;;;;;;15.70;99.90;;;;;;5056642;28;19924;-84
2022/09/04 01:58:16;;;;;;;;;;;15.60;99.90;;;;;;5055291;28;19955;-84
2022/09/04 02:00:49;;;;;;;;;;;15.60;99.90;;;;;;5063389;28;19924;-84
2022/09/04 02:03:21;;;;;;;;;;;15.60;99.90;;;;;;5056977;28;20467;-84
2022/09/04 02:05:54;;;;;;;;;;;15.60;99.90;;;;;;5072992;28;20325;-84
2022/09/04 02:08:28;;;;;;;;;;;15.60;99.90;;;;;;5073215;28;20027;-84
2022/09/04 02:10:57;;;;;;;;;;;15.50;99.90;;;;;;5072708;28;19963;-84
2022/09/04 02:13:34;;;;;;;;;;;15.50;99.90;;;;;;5072325;28;20411;-84
2022/09/04 02:16:09;;;;;;;;;;;15.50;99.90;;;;;;5074478;28;20023;-84
2022/09/04 02:18:44;;;;;;;;;;;15.40;99.90;;;;;;5072634;28;19927;-84
2022/09/04 02:21:14;;;;;;;;;;;15.40;99.90;;;;;;5064391;28;19928;-83
2022/09/04 02:23:44;;;;;;;;;;;15.40;99.90;;;;;;5063799;28;20347;-84
2022/09/04 02:26:14;;;;;;;;;;;15.40;99.90;;;;;;5072840;28;20398;-83
2022/09/04 02:28:47;;;;;;;;;;;15.40;99.90;;;;;;5071771;28;19921;-83
2022/09/04 02:31:21;;;;;;;;;;;15.40;99.90;;;;;;5072060;28;20058;-82
2022/09/04 02:33:51;;;;;;;;;;;15.30;99.90;;;;;;5086778;28;20416;-83
2022/09/04 02:36:21;;;;;;;;;;;15.30;99.90;;;;;;5093635;28;19980;-83
2022/09/04 02:38:55;;;;;;;;;;;15.30;99.90;;;;;;5083812;28;19931;-82
2022/09/04 02:41:26;;;;;;;;;;;15.30;99.90;;;;;;5072780;28;19963;-83
2022/09/04 02:44:00;;;;;;;;;;;15.30;99.90;;;;;;5073707;28;20383;-83
2022/09/04 02:46:31;;;;;;;;;;;15.30;99.90;;;;;;5076741;28;19924;-82
2022/09/04 02:49:06;;;;;;;;;;;15.30;99.90;;;;;;5067486;28;19920;-83
2022/09/04 02:51:41;;;;;;;;;;;15.40;99.90;;;;;;5057081;28;20395;-83
2022/09/04 02:54:10;;;;;;;;;;;15.40;99.90;;;;;;5067776;28;20296;-82
2022/09/04 02:56:42;;;;;;;;;;;15.50;99.90;;;;;;5077295;28;19951;-82
2022/09/04 02:59:17;;;;;;;;;;;15.50;99.90;;;;;;5074166;28;19920;-83
2022/09/04 03:01:47;;;;;;;;;;;15.50;99.90;;;;;;5074567;28;19928;-82
2022/09/04 03:04:17;;;;;;;;;;;15.60;99.90;;;;;;5067544;28;20403;-84
2022/09/04 03:06:50;;;;;;;;;;;15.60;99.90;;;;;;5055948;28;20390;-85
2022/09/04 03:09:21;;;;;;;;;;;15.60;99.90;;;;;;5056134;28;19943;-84
2022/09/04 03:11:50;;;;;;;;;;;15.60;99.90;;;;;;5055828;28;19925;-83
2022/09/04 03:14:23;;;;;;;;;;;15.60;99.90;;;;;;5055247;28;19921;-83
2022/09/04 03:16:53;;;;;;;;;;;15.60;99.90;;;;;;5056621;28;19924;-83
2022/09/04 03:19:24;;;;;;;;;;;15.60;99.90;;;;;;5058332;28;20325;-84
2022/09/04 03:21:53;;;;;;;;;;;15.60;99.90;;;;;;5067594;28;19934;-83
2022/09/04 03:24:23;;;;;;;;;;;15.60;99.90;;;;;;5070291;28;19920;-83
2022/09/04 03:26:52;;;;;;;;;;;15.60;99.90;;;;;;5055794;28;19924;-85
2022/09/04 03:29:26;;;;;;;;;;;15.60;99.90;;;;;;5064207;28;19966;-85
2022/09/04 03:31:58;;;;;;;;;;;15.60;99.90;;;;;;5076279;28;19931;-83
2022/09/04 03:34:33;;;;;;;;;;;15.50;99.90;;;;;;5075965;28;19959;-82
2022/09/04 03:37:17;;;;;;;;;;;15.50;99.90;;;;;;5074511;28;19954;-83
2022/09/04 03:39:49;;;;;;;;;;;15.50;99.90;;;;;;5074837;28;19924;-83
2022/09/04 03:42:20;;;;;;;;;;;15.50;99.90;;;;;;5074773;28;19924;-84
2022/09/04 03:44:54;;;;;;;;;;;15.50;99.90;;;;;;5077097;28;19920;-83
2022/09/04 03:47:30;;;;;;;;;;;15.50;99.90;;;;;;5075480;28;19943;-83
2022/09/04 03:50:03;;;;;;;;;;;15.50;99.90;;;;;;5075327;28;20031;-83
2022/09/04 03:52:34;;;;;;;;;;;15.50;99.90;;;;;;5067895;28;19921;-82
2022/09/04 03:55:11;;;;;;;;;;;15.50;99.90;;;;;;5054172;28;19978;-82
2022/09/04 03:57:46;;;;;;;;;;;15.40;99.90;;;;;;5055458;28;19982;-82
2022/09/04 04:00:18;;;;;;;;;;;15.40;99.90;;;;;;5058443;28;19967;-81
2022/09/04 04:02:52;;;;;;;;;;;15.30;99.90;;;;;;5053947;28;19920;-81
2022/09/04 04:05:24;;;;;;;;;;;15.30;99.90;;;;;;5054050;28;19943;-82
2022/09/04 04:07:58;;;;;;;;;;;15.30;99.90;;;;;;5054783;28;19925;-82
2022/09/04 04:10:32;;;;;;;;;;;15.30;99.90;;;;;;5053162;28;19929;-81
2022/09/04 04:13:18;;;;;;;;;;;15.20;99.90;;;;;;5053718;28;19924;-81
2022/09/04 04:15:54;;;;;;;;;;;15.10;99.90;;;;;;5053150;28;19929;-81
2022/09/04 04:18:34;;;;;;;;;;;15.10;99.90;;;;;;5053014;28;19975;-82
2022/09/04 04:21:07;;;;;;;;;;;15.10;99.90;;;;;;5053113;28;19947;-81
2022/09/04 04:23:55;;;;;;;;;;;15.10;99.90;;;;;;5053285;28;19920;-81
2022/09/04 04:26:27;;;;;;;;;;;15.00;99.90;;;;;;5052026;28;19986;-81
2022/09/04 04:29:03;;;;;;;;;;;15.10;99.90;;;;;;5053687;28;20347;-81
2022/09/04 04:31:38;;;;;;;;;;;15.10;99.90;;;;;;5053359;28;20415;-81
2022/09/04 04:34:09;;;;;;;;;;;15.00;99.90;;;;;;5052668;28;19921;-81
2022/09/04 04:36:38;;;;;;;;;;;15.10;99.90;;;;;;5052775;28;20483;-80
2022/09/04 04:39:13;;;;;;;;;;;15.00;99.90;;;;;;5063535;28;19935;-81
2022/09/04 04:42:04;;;;;;;;;;;15.10;99.90;;;;;;5072389;28;19921;-81
2022/09/04 04:47:33;;;;;;;;;;;15.10;99.90;;;;;;5071449;28;20302;-81
2022/09/04 04:50:07;;;;;;;;;;;15.10;99.90;;;;;;5072848;28;19920;-82
2022/09/04 04:52:40;;;;;;;;;;;15.10;99.90;;;;;;5072121;28;19928;-81
2022/09/04 04:55:13;;;;;;;;;;;15.10;99.90;;;;;;5061546;28;19947;-81
2022/09/04 04:57:52;;;;;;;;;;;15.10;99.90;;;;;;5051920;28;19931;-81
2022/09/04 05:00:21;;;;;;;;;;;15.20;99.90;;;;;;5052253;28;19921;-82
2022/09/04 05:02:55;;;;;;;;;;;15.20;99.90;;;;;;5052664;28;19924;-80
2022/09/04 05:05:42;;;;;;;;;;;15.20;99.90;;;;;;5052063;28;19921;-81
2022/09/04 05:08:14;;;;;;;;;;;15.20;99.90;;;;;;5051355;28;19932;-82
2022/09/04 05:10:44;;;;;;;;;;;15.30;99.90;;;;;;5053310;28;19921;-82
2022/09/04 05:13:14;;;;;;;;;;;15.30;99.90;;;;;;5053453;28;19925;-83
2022/09/04 05:15:43;;;;;;;;;;;15.40;99.90;;;;;;5053126;28;19925;-82
2022/09/04 05:18:16;;;;;;;;;;;15.40;99.90;;;;;;5052433;28;19925;-81
2022/09/04 05:20:46;;;;;;;;;;;15.50;99.90;;;;;;5068751;28;19920;-83
2022/09/04 05:23:17;;;;;;;;;;;15.60;99.90;;;;;;5071636;28;19931;-82
2022/09/04 05:25:50;;;;;;;;;;;15.70;99.90;;;;;;5060761;28;19925;-82
2022/09/04 05:28:25;;;;;;;;;;;15.70;99.90;;;;;;5058820;28;20402;-83
2022/09/04 05:30:59;;;;;;;;;;;15.90;99.90;;;;;;5070274;28;19924;-82
2022/09/04 05:33:32;;;;;;;;;;;16.00;99.90;;;;;;5069537;28;19920;-84
2022/09/04 05:36:01;;;;;;;;;;;16.10;99.90;;;;;;5070108;28;20301;-83
2022/09/04 05:38:30;;;;;;;;;;;16.30;99.90;;;;;;5058061;28;19932;-83
2022/09/04 05:41:05;;;;;;;;;;;17.40;99.90;;;;;;5053563;28;20391;-83
2022/09/04 05:43:50;;;;;;;;;;;17.50;99.90;;;;;;5051610;28;19937;-83
2022/09/04 05:46:21;;;;;;;;;;;18.00;99.90;;;;;;5051491;28;19979;-84
2022/09/04 05:48:53;;;;;;;;;;;18.60;99.90;;;;;;5062952;28;19924;-82
2022/09/04 05:51:44;;;;;;;;;;;19.40;99.90;;;;;;5072241;28;20111;-83
2022/09/04 05:54:39;;;;;;;;;;;20.10;99.90;;;;;;5050889;28;20371;-82
2022/09/04 05:57:19;;;;;;;;;;;20.90;99.90;;;;;;5027990;28;19931;-82
2022/09/04 06:00:01;;;;;;;;;;;21.60;99.90;;;;;;5108502;28;19920;-84
2022/09/04 06:02:55;;;;;;;;;;;22.30;99.90;;;;;;5051338;28;20376;-84
2022/09/04 06:05:27;;;;;;;;;;;22.90;99.90;;;;;;5023659;28;19972;-83
2022/09/04 06:08:00;;;;;;;;;;;24.00;99.90;;;;;;5053474;28;19921;-83
2022/09/04 06:10:30;;;;;;;;;;;24.00;99.90;;;;;;5054334;28;19983;-84
2022/09/04 06:13:07;;;;;;;;;;;24.60;99.90;;;;;;5053405;28;19924;-81
2022/09/04 06:15:44;;;;;;;;;;;25.20;99.90;;;;;;5056293;28;19921;-81
2022/09/04 06:18:18;;;;;;;;;;;25.80;99.90;;;;;;5054745;28;19925;-80
2022/09/04 06:20:54;;;;;;;;;;;26.20;99.90;;;;;;5060745;28;19924;-81
2022/09/04 06:23:27;;;;;;;;;;;26.40;99.90;;;;;;5060382;28;19951;-80
2022/09/04 06:26:07;;;;;;;;;;;26.80;99.90;;;;;;5059456;28;20019;-81
2022/09/04 06:28:47;;;;;;;;;;;27.10;99.90;;;;;;5060184;28;19925;-81
2022/09/04 06:31:28;;;;;;;;;;;27.20;99.90;;;;;;5068086;28;19927;-81
2022/09/04 06:33:57;;;;;;;;;;;27.60;99.90;;;;;;5079573;28;19932;-81
2022/09/04 06:36:33;;;;;;;;;;;27.90;99.90;;;;;;5064166;28;19925;-81
2022/09/04 06:39:11;;;;;;;;;;;28.20;99.90;;;;;;5078533;28;19939;-80
2022/09/04 06:41:43;;;;;;;;;;;28.50;99.90;;;;;;5078592;28;19924;-81
2022/09/04 06:44:19;;;;;;;;;;;28.80;99.90;;;;;;5074899;28;19924;-81
2022/09/04 06:46:50;;;;;;;;;;;29.20;99.90;;;;;;5078005;28;19947;-81
2022/09/04 06:49:22;;;;;;;;;;;29.60;99.90;;;;;;5059665;28;20287;-81
2022/09/04 06:52:04;;;;;;;;;;;29.90;99.90;;;;;;5079704;28;19921;-82
2022/09/04 06:54:39;;;;;;;;;;;30.10;99.90;;;;;;5071354;28;19921;-81
2022/09/04 06:57:13;;;;;;;;;;;30.30;99.90;;;;;;5060372;28;19928;-81
2022/09/04 06:59:46;;;;;;;;;;;30.40;99.90;;;;;;5061600;28;19924;-82
2022/09/04 07:02:20;;;;;;;;;;;30.50;99.90;;;;;;5061767;28;20182;-82
2022/09/04 07:04:51;;;;;;;;;;;30.60;99.90;;;;;;5059072;28;19920;-81
2022/09/04 07:07:29;;;;;;;;;;;30.70;99.90;;;;;;5057832;28;19931;-83
2022/09/04 07:09:57;;;;;;;;;;;30.80;99.90;;;;;;5056834;28;19990;-82
2022/09/04 07:12:33;;;;;;;;;;;31.00;99.90;;;;;;5055902;28;20051;-82
2022/09/04 07:15:16;;;;;;;;;;;31.10;99.90;;;;;;5071278;28;19924;-83
2022/09/04 07:17:48;;;;;;;;;;;31.00;99.90;;;;;;5075554;28;19927;-82
2022/09/04 07:20:17;;;;;;;;;;;30.90;99.90;;;;;;5077854;28;19966;-82
2022/09/04 07:23:01;;;;;;;;;;;30.90;99.90;;;;;;5057611;28;19924;-82
2022/09/04 07:25:33;;;;;;;;;;;30.90;99.90;;;;;;5068803;28;19925;-82
2022/09/04 07:28:15;;;;;;;;;;;30.80;99.90;;;;;;5067102;28;19924;-81
2022/09/04 07:30:44;;;;;;;;;;;30.90;99.90;;;;;;5052590;28;19924;-81
2022/09/04 07:33:15;;;;;;;;;;;30.90;99.90;;;;;;5056753;28;19932;-81
2022/09/04 07:35:44;;;;;;;;;;;31.00;99.90;;;;;;5074735;28;19924;-82
2022/09/04 07:38:19;;;;;;;;;;;31.10;99.90;;;;;;5074512;28;19924;-80
2022/09/04 07:40:47;;;;;;;;;;;31.20;99.90;;;;;;5077183;28;20064;-80
2022/09/04 07:43:20;;;;;;;;;;;31.40;99.90;;;;;;5083407;28;19995;-82
2022/09/04 07:45:50;;;;;;;;;;;31.50;99.90;;;;;;5084447;28;20154;-81
2022/09/04 07:48:22;;;;;;;;;;;31.60;99.90;;;;;;5086995;28;19989;-83
2022/09/04 07:51:02;;;;;;;;;;;31.70;99.90;;;;;;5078763;28;19978;-83
2022/09/04 07:53:45;;;;;;;;;;;32.00;99.90;;;;;;5057317;28;20047;-83
2022/09/04 07:56:15;;;;;;;;;;;32.10;99.90;;;;;;5056176;28;20019;-84
2022/09/04 07:58:51;;;;;;;;;;;32.10;99.90;;;;;;5056713;28;20357;-84
2022/09/04 08:01:24;;;;;;;;;;;32.20;99.90;;;;;;5055549;28;20380;-84
2022/09/04 08:04:11;;;;;;;;;;;32.20;99.70;;;;;;5055527;28;19932;-83
2022/09/04 08:06:43;;;;;;;;;;;32.00;99.10;;;;;;5055385;28;19932;-84
2022/09/04 08:09:22;;;;;;;;;;;31.90;98.20;;;;;;5056422;28;19925;-82
2022/09/04 08:11:57;;;;;;;;;;;31.90;98.60;;;;;;5054881;28;19925;-82
2022/09/04 08:14:26;;;;;;;;;;;31.80;98.10;;;;;;5055621;28;19924;-83
2022/09/04 08:17:06;;;;;;;;;;;31.80;97.70;;;;;;5066662;28;19969;-82
2022/09/04 08:19:41;;;;;;;;;;;31.70;97.60;;;;;;5068693;28;19920;-80
2022/09/04 08:22:10;;;;;;;;;;;31.60;97.80;;;;;;5072828;28;19924;-82
2022/09/04 08:24:51;;;;;;;;;;;31.50;97.50;;;;;;5066523;28;20337;-79
2022/09/04 08:27:24;;;;;;;;;;;31.40;97.70;;;;;;5059348;28;19929;-81
2022/09/04 08:29:55;;;;;;;;;;;31.60;97.30;;;;;;5057443;28;19920;-80
2022/09/04 08:32:28;;;;;;;;;;;31.60;97.00;;;;;;5058933;28;20409;-81
2022/09/04 08:35:00;;;;;;;;;;;31.60;97.70;;;;;;5052003;28;20030;-80
2022/09/04 08:37:28;;;;;;;;;;;31.60;96.90;;;;;;5053652;28;20007;-81
2022/09/04 08:40:02;;;;;;;;;;;31.50;96.80;;;;;;5054562;28;19920;-81
2022/09/04 08:42:50;;;;;;;;;;;31.50;96.80;;;;;;5053021;28;19921;-81
2022/09/04 08:45:35;;;;;;;;;;;31.50;96.30;;;;;;5046037;28;19925;-81
2022/09/04 08:48:17;;;;;;;;;;;31.40;96.50;;;;;;5067783;28;19935;-81
2022/09/04 08:50:52;;;;;;;;;;;31.20;96.50;;;;;;5053549;28;19924;-81
2022/09/04 08:53:32;;;;;;;;;;;31.20;96.70;;;;;;5056325;28;20624;-82
2022/09/04 08:56:09;;;;;;;;;;;31.20;96.40;;;;;;5062347;28;19925;-81
2022/09/04 08:58:49;;;;;;;;;;;31.10;96.30;;;;;;5062388;28;20378;-81
2022/09/04 09:01:26;;;;;;;;;;;31.10;96.40;;;;;;5066472;28;19928;-81
2022/09/04 09:04:03;;;;;;;;;;;31.00;96.40;;;;;;5065743;28;19924;-81
2022/09/04 09:06:44;;;;;;;;;;;31.00;96.10;;;;;;5065974;28;20526;-81
2022/09/04 09:09:26;;;;;;;;;;;30.90;96.20;;;;;;5057953;28;20541;-81
2022/09/04 09:12:08;;;;;;;;;;;30.80;96.10;;;;;;5065937;28;19931;-81
2022/09/04 09:14:50;;;;;;;;;;;30.60;96.20;;;;;;5066684;28;20346;-80
2022/09/04 09:17:28;;;;;;;;;;;30.40;96.40;;;;;;5073302;28;20046;-80
2022/09/04 09:19:59;;;;;;;;;;;30.40;97.00;;;;;;5059988;28;19928;-80
2022/09/04 09:22:49;;;;;;;;;;;30.20;96.70;;;;;;5063855;28;20459;-80
2022/09/04 09:25:19;;;;;;;;;;;30.20;96.60;;;;;;5059540;28;20416;-80
2022/09/04 09:28:01;;;;;;;;;;;30.20;96.80;;;;;;5070460;28;20679;-81
2022/09/04 09:30:35;;;;;;;;;;;30.10;96.50;;;;;;5053622;28;20423;-81
2022/09/04 09:33:32;;;;;;;;;;;29.90;96.50;;;;;;5088608;28;19920;-81
2022/09/04 09:36:17;;;;;;;;;;;29.40;96.30;;;;;;4995735;28;20032;-81
2022/09/04 09:38:57;;;;;;;;;;;29.20;96.80;;;;;;5062980;28;20453;-81
2022/09/04 09:41:44;;;;;;;;;;;28.80;97.10;;;;;;5062148;28;19974;-82
2022/09/04 09:44:26;;;;;;;;;;;28.40;97.50;;;;;;5058281;28;19927;-82
2022/09/04 09:47:10;;;;;;;;;;;28.00;97.60;;;;;;5057992;28;19924;-81
2022/09/04 09:49:50;;;;;;;;;;;27.70;98.30;;;;;;5054936;28;19928;-83
2022/09/04 09:52:31;;;;;;;;;;;27.40;98.80;;;;;;5062791;28;19935;-82
2022/09/04 09:55:17;;;;;;;;;;;27.10;98.80;;;;;;5066242;28;19946;-81
2022/09/04 09:58:14;;;;;;;;;;;27.10;99.60;;;;;;5084231;28;19931;-81
2022/09/04 10:00:51;;;;;;;;;;;27.10;99.90;;;;;;5082437;28;19920;-82
2022/09/04 10:03:33;;;;;;;;;;;27.00;99.90;;;;;;5080244;28;19978;-82
2022/09/04 10:06:20;;;;;;;;;;;26.90;99.90;;;;;;5080167;28;19935;-83
2022/09/04 10:09:08;;;;;;;;;;;26.90;99.90;;;;;;5068957;28;19927;-82
2022/09/04 10:11:54;;;;;;;;;;;26.90;99.90;;;;;;5063597;28;19931;-82
2022/09/04 10:14:36;;;;;;;;;;;26.90;99.90;;;;;;5067936;28;19924;-83
2022/09/04 10:17:21;;;;;;;;;;;27.00;99.90;;;;;;5074949;28;19928;-82
2022/09/04 10:20:17;;;;;;;;;;;27.10;99.90;;;;;;5078116;28;19928;-81
2022/09/04 10:23:11;;;;;;;;;;;27.20;99.90;;;;;;5043480;28;19920;-82
2022/09/04 10:25:47;;;;;;;;;;;27.40;99.90;;;;;;5046643;28;19972;-81
2022/09/04 10:28:24;;;;;;;;;;;27.40;99.90;;;;;;5058289;28;19956;-81
2022/09/04 10:31:10;;;;;;;;;;;27.60;99.90;;;;;;5058124;28;19925;-81
2022/09/04 10:33:44;;;;;;;;;;;27.70;99.90;;;;;;5059054;28;19940;-81
2022/09/04 10:36:17;;;;;;;;;;;27.70;99.90;;;;;;5059829;28;20054;-81
2022/09/04 10:41:44;;;;;;;;;;;28.00;99.90;;;;;;5059438;28;19979;-81
2022/09/04 10:44:19;;;;;;;;;;;28.00;99.90;;;;;;5058734;28;20380;-83
2022/09/04 10:46:52;;;;;;;;;;;28.20;99.90;;;;;;5058630;28;19925;-83
2022/09/04 10:49:34;;;;;;;;;;;28.30;99.90;;;;;;5059984;28;19998;-82
2022/09/04 10:52:13;;;;;;;;;;;28.20;99.10;;;;;;5063804;28;19943;-83
2022/09/04 10:55:01;;;;;;;;;;;28.10;99.40;;;;;;5066325;28;19920;-79
2022/09/04 10:57:38;;;;;;;;;;;28.10;99.70;;;;;;5069430;28;19991;-79
2022/09/04 11:00:09;;;;;;;;;;;28.00;99.30;;;;;;5089933;28;19949;-77
2022/09/04 11:03:02;;;;;;;;;;;27.70;99.60;;;;;;5082896;28;19924;-77
2022/09/04 11:05:33;;;;;;;;;;;28.30;99.40;;;;;;5003769;28;19951;-76
2022/09/04 11:08:08;;;;;;;;;;;28.40;99.90;;;;;;5063982;28;20287;-77
2022/09/04 11:10:54;;;;;;;;;;;28.50;99.20;;;;;;5074972;28;19928;-78
2022/09/04 11:13:47;;;;;;;;;;;28.70;99.20;;;;;;5061884;28;19947;-76
2022/09/04 11:16:21;;;;;;;;;;;28.90;98.80;;;;;;5053128;28;19928;-76
2022/09/04 11:19:04;;;;;;;;;;;28.90;98.70;;;;;;5073212;28;19920;-77
2022/09/04 11:21:43;;;;;;;;;;;29.10;98.80;;;;;;5068990;28;19987;-77
2022/09/04 11:24:26;;;;;;;;;;;29.40;98.80;;;;;;5072545;28;20027;-76
2022/09/04 11:27:14;;;;;;;;;;;29.70;98.30;;;;;;5071396;28;19924;-77
2022/09/04 11:29:46;;;;;;;;;;;30.00;98.20;;;;;;5053807;28;19959;-77
2022/09/04 11:32:30;;;;;;;;;;;30.30;97.30;;;;;;5055576;28;20083;-76
2022/09/04 11:35:26;;;;;;;;;;;30.30;97.20;;;;;;5068401;28;19929;-76
2022/09/04 11:38:07;;;;;;;;;;;30.40;97.00;;;;;;5063128;28;19935;-76
2022/09/04 11:40:54;;;;;;;;;;;30.70;96.70;;;;;;5070935;28;19974;-77
2022/09/04 11:43:29;;;;;;;;;;;30.80;96.40;;;;;;5070001;28;19924;-76
2022/09/04 11:46:07;;;;;;;;;;;31.00;95.80;;;;;;5051934;28;20327;-76
2022/09/04 11:48:54;;;;;;;;;;;31.20;95.80;;;;;;5055213;28;20320;-76
2022/09/04 11:51:39;;;;;;;;;;;31.40;95.50;;;;;;5051628;28;20016;-76
2022/09/04 11:54:16;;;;;;;;;;;31.60;94.50;;;;;;5027428;28;19946;-76
2022/09/04 11:56:49;;;;;;;;;;;31.70;94.30;;;;;;5053231;28;19928;-76
2022/09/04 11:59:25;;;;;;;;;;;31.90;94.10;;;;;;5052505;28;19959;-76
2022/09/04 12:02:10;;;;;;;;;;;32.10;93.60;;;;;;5065606;28;19924;-77
2022/09/04 12:04:48;;;;;;;;;;;32.30;92.60;;;;;;5050809;28;19921;-76
2022/09/04 12:07:31;;;;;;;;;;;32.40;92.50;;;;;;5050803;28;19943;-76
2022/09/04 12:10:13;;;;;;;;;;;32.20;92.00;;;;;;5067404;28;19924;-76
2022/09/04 12:12:52;;;;;;;;;;;31.90;92.00;;;;;;5054456;28;19939;-76
2022/09/04 12:15:30;;;;;;;;;;;31.60;92.00;;;;;;5049254;28;19924;-76
2022/09/04 12:18:15;;;;;;;;;;;31.80;92.30;;;;;;5059749;28;19920;-76
2022/09/04 12:20:57;;;;;;;;;;;32.20;92.20;;;;;;5053141;28;19924;-77
2022/09/04 12:23:41;;;;;;;;;;;31.10;92.10;;;;;;5050453;28;19924;-77
2022/09/04 12:26:26;;;;;;;;;;;31.00;92.30;;;;;;5060262;28;19939;-77
2022/09/04 12:29:12;;;;;;;;;;;31.10;92.20;;;;;;5071095;28;20446;-77
2022/09/04 12:31:50;;;;;;;;;;;31.30;91.90;;;;;;5053241;28;20393;-77
2022/09/04 12:34:33;;;;;;;;;;;31.40;91.30;;;;;;5050706;28;19927;-77
2022/09/04 12:37:10;;;;;;;;;;;31.40;91.20;;;;;;5050457;28;20335;-77
2022/09/04 12:39:45;;;;;;;;;;;31.60;91.40;;;;;;5067806;28;19986;-78
2022/09/04 12:42:17;;;;;;;;;;;32.00;91.10;;;;;;5064170;28;20457;-77
2022/09/04 12:44:53;;;;;;;;;;;31.70;90.00;;;;;;5063678;28;20015;-78
2022/09/04 12:47:31;;;;;;;;;;;31.70;90.10;;;;;;5066840;28;19925;-76
2022/09/04 12:50:26;;;;;;;;;;;31.30;89.90;;;;;;5051588;28;19932;-76
2022/09/04 12:53:03;;;;;;;;;;;31.00;90.50;;;;;;5043801;28;20450;-77
2022/09/04 12:55:34;;;;;;;;;;;30.90;91.10;;;;;;5065602;28;20336;-77
2022/09/04 12:58:06;;;;;;;;;;;31.00;90.90;;;;;;5061316;28;19977;-77
2022/09/04 13:00:39;;;;;;;;;;;31.20;88.70;;;;;;5071029;28;20314;-77
2022/09/04 13:03:16;;;;;;;;;;;31.40;88.40;;;;;;5060052;28;21574;-76
2022/09/04 13:05:49;;;;;;;;;;;31.40;87.90;;;;;;5070149;28;20450;-77
2022/09/04 13:08:19;;;;;;;;;;;31.20;86.80;;;;;;5057781;28;19929;-77
2022/09/04 13:10:52;;;;;;;;;;;31.10;88.30;;;;;;5064745;28;19936;-77
2022/09/04 13:13:24;;;;;;;;;;;31.20;88.60;;;;;;5066473;28;19932;-77
2022/09/04 13:15:56;;;;;;;;;;;31.20;88.60;;;;;;5068188;28;20353;-77
2022/09/04 13:18:36;;;;;;;;;;;31.40;88.30;;;;;;5068218;28;19971;-77
2022/09/04 13:21:12;;;;;;;;;;;31.80;88.40;;;;;;5070085;28;20384;-77
2022/09/04 13:23:47;;;;;;;;;;;32.00;87.60;;;;;;5070601;28;20063;-77
2022/09/04 13:26:29;;;;;;;;;;;32.10;87.60;;;;;;5069754;28;20602;-77
2022/09/04 13:29:03;;;;;;;;;;;32.10;87.00;;;;;;5070229;28;19940;-77
2022/09/04 13:31:42;;;;;;;;;;;32.20;85.80;;;;;;5066111;28;19986;-77
2022/09/04 13:34:17;;;;;;;;;;;32.20;84.80;;;;;;5050926;28;20215;-77
2022/09/04 13:36:52;;;;;;;;;;;32.20;82.80;;;;;;5049677;28;19932;-77
2022/09/04 13:39:34;;;;;;;;;;;32.20;83.20;;;;;;5048684;28;19936;-77
2022/09/04 13:42:22;;;;;;;;;;;32.10;81.50;;;;;;5062596;28;19967;-77
2022/09/04 13:45:04;;;;;;;;;;;32.20;81.90;;;;;;5056743;28;19947;-77
2022/09/04 13:47:37;;;;;;;;;;;32.30;82.80;;;;;;5064200;28;19936;-77
2022/09/04 13:50:10;;;;;;;;;;;32.40;81.90;;;;;;5050203;28;19959;-77
2022/09/04 13:52:43;;;;;;;;;;;32.20;80.90;;;;;;5052610;28;19924;-77
2022/09/04 13:55:13;;;;;;;;;;;32.20;81.50;;;;;;5056010;28;19935;-77
2022/09/04 13:57:43;;;;;;;;;;;31.90;80.30;;;;;;5075466;28;19929;-80
2022/09/04 14:00:15;;;;;;;;;;;31.90;80.80;;;;;;5079382;28;19993;-79
2022/09/04 14:02:43;;;;;;;;;;;31.90;80.60;;;;;;5065596;28;19928;-82
2022/09/04 14:05:14;;;;;;;;;;;31.80;81.00;;;;;;5059498;28;19929;-80
2022/09/04 14:07:42;;;;;;;;;;;31.80;81.10;;;;;;5056579;28;19929;-80
2022/09/04 14:10:11;;;;;;;;;;;31.80;80.40;;;;;;5057251;28;19936;-80
2022/09/04 14:12:49;;;;;;;;;;;31.80;80.60;;;;;;5057864;28;19936;-80
2022/09/04 14:15:33;;;;;;;;;;;31.80;80.70;;;;;;5069660;28;19956;-80
2022/09/04 14:18:03;;;;;;;;;;;31.80;80.80;;;;;;5074883;28;19994;-80
2022/09/04 14:20:35;;;;;;;;;;;31.70;80.60;;;;;;5064407;28;19929;-80
2022/09/04 14:23:07;;;;;;;;;;;31.70;80.30;;;;;;5062476;28;19936;-78
2022/09/04 14:25:38;;;;;;;;;;;31.70;81.10;;;;;;5066376;28;19925;-81
2022/09/04 14:28:12;;;;;;;;;;;31.70;80.30;;;;;;5072258;28;20380;-80
2022/09/04 14:30:41;;;;;;;;;;;31.80;80.00;;;;;;5071815;28;19954;-79
2022/09/04 14:33:20;;;;;;;;;;;31.50;79.00;;;;;;5070864;28;20501;-82
2022/09/04 14:35:54;;;;;;;;;;;31.50;79.30;;;;;;5061500;28;20384;-83
2022/09/04 14:38:36;;;;;;;;;;;31.30;79.90;;;;;;5068417;28;19956;-83
2022/09/04 14:41:12;;;;;;;;;;;31.20;80.20;;;;;;5056903;28;19975;-83
2022/09/04 14:43:43;;;;;;;;;;;31.20;81.00;;;;;;5072886;28;20411;-83
2022/09/04 14:46:15;;;;;;;;;;;31.20;80.60;;;;;;5069268;28;19928;-83
2022/09/04 14:48:43;;;;;;;;;;;31.20;80.50;;;;;;5064642;28;19928;-83
2022/09/04 14:51:14;;;;;;;;;;;31.10;80.00;;;;;;5066825;28;20257;-81
2022/09/04 14:53:46;;;;;;;;;;;31.20;80.30;;;;;;5062642;28;19929;-81
2022/09/04 14:56:25;;;;;;;;;;;31.10;80.20;;;;;;5070435;28;19935;-82
2022/09/04 14:58:55;;;;;;;;;;;31.20;80.00;;;;;;5069953;28;20609;-82
2022/09/04 15:01:23;;;;;;;;;;;31.20;80.50;;;;;;5064830;28;19933;-83
2022/09/04 15:03:54;;;;;;;;;;;31.20;80.10;;;;;;5064381;28;19955;-83
2022/09/04 15:06:24;;;;;;;;;;;31.10;79.70;;;;;;5059770;28;19925;-84
2022/09/04 15:08:58;;;;;;;;;;;31.00;79.90;;;;;;5072019;28;19928;-82
2022/09/04 15:11:27;;;;;;;;;;;30.90;79.40;;;;;;5076808;28;19944;-82
2022/09/04 15:13:58;;;;;;;;;;;30.90;79.60;;;;;;5060033;28;19932;-83